Time;durP1;ratioP1;P1;durP2;ratioP2;P2;SDS_P1;SDS_P2;PMS_P1;PMS_P2;Temp;Humidity;BMP_temperature;BMP_pressure;BME280_temperature;BME280_humidity;BME280_pressure;Samples;Min_cycle;Max_cycle;Signal;HPM_P1;HPM_P2
2022/05/30 00:00:44;;;;;;;6.18;1.50;;;9.50;99.90;;;;;;5069716;28;20048;-86
2022/05/30 00:03:10;;;;;;;13.88;1.77;;;9.50;99.90;;;;;;5068767;28;20108;-86
2022/05/30 00:05:36;;;;;;;8.88;1.48;;;8.90;99.90;;;;;;5053405;28;20428;-86
2022/05/30 00:08:02;;;;;;;5.65;1.27;;;9.00;99.90;;;;;;5069127;28;20052;-85
2022/05/30 00:10:29;;;;;;;3.78;1.23;;;8.10;99.90;;;;;;5089102;28;20098;-86
2022/05/30 00:12:55;;;;;;;6.57;1.48;;;9.20;99.90;;;;;;5093556;28;20500;-86
2022/05/30 00:15:22;;;;;;;4.40;0.85;;;9.00;99.90;;;;;;5076221;28;20048;-86
2022/05/30 00:17:48;;;;;;;11.45;1.08;;;9.30;99.90;;;;;;5087324;28;20044;-86
2022/05/30 00:20:14;;;;;;;6.22;1.00;;;9.10;99.90;;;;;;5085846;28;20044;-86
2022/05/30 00:22:40;;;;;;;3.67;0.93;;;8.10;99.90;;;;;;5069624;28;20131;-86
2022/05/30 00:25:06;;;;;;;7.45;1.17;;;8.30;99.90;;;;;;5085779;28;20547;-85
2022/05/30 00:27:32;;;;;;;7.70;1.10;;;7.90;99.90;;;;;;5052366;28;20046;-88
2022/05/30 00:29:58;;;;;;;3.78;0.85;;;8.30;99.90;;;;;;5052130;28;20036;-88
2022/05/30 00:32:24;;;;;;;5.93;0.90;;;7.90;99.90;;;;;;5085619;28;20509;-88
2022/05/30 00:34:50;;;;;;;8.07;1.33;;;9.30;99.90;;;;;;5086303;28;20439;-88
2022/05/30 00:37:16;;;;;;;6.60;0.88;;;7.90;99.90;;;;;;5068233;28;20047;-87
2022/05/30 00:39:41;;;;;;;2.85;0.60;;;9.00;99.90;;;;;;5035799;28;20081;-88
2022/05/30 00:42:16;;;;;;;6.75;0.77;;;7.90;99.90;;;;;;5068225;28;20113;-88
2022/05/30 00:44:44;;;;;;;2.78;0.60;;;8.60;99.90;;;;;;5068915;28;20058;-88
2022/05/30 00:47:11;;;;;;;7.63;0.95;;;9.00;99.90;;;;;;5085503;28;20036;-88
2022/05/30 00:49:39;;;;;;;8.52;0.80;;;8.90;99.90;;;;;;5052111;28;20446;-89
2022/05/30 00:52:07;;;;;;;7.05;0.98;;;7.90;99.90;;;;;;5052150;28;20082;-88
2022/05/30 00:54:42;;;;;;;3.53;0.80;;;8.00;99.90;;;;;;5051359;28;20048;-89
2022/05/30 00:57:21;;;;;;;6.30;0.73;;;8.00;99.90;;;;;;5085639;28;20032;-88
2022/05/30 00:59:49;;;;;;;4.78;0.70;;;9.20;99.90;;;;;;5057651;28;20080;-88
2022/05/30 01:02:15;;;;;;;5.00;0.90;;;8.10;99.90;;;;;;5090409;28;20028;-89
2022/05/30 01:07:25;;;;;;;2.90;0.73;;;8.10;99.90;;;;;;5079192;28;20568;-89
2022/05/30 01:09:54;;;;;;;3.03;0.85;;;8.10;99.90;;;;;;5074842;28;20040;-90
2022/05/30 01:12:36;;;;;;;5.07;0.70;;;8.10;99.90;;;;;;5086895;28;20043;-89
2022/05/30 01:15:03;;;;;;;6.33;1.07;;;8.10;99.90;;;;;;5085910;28;20059;-86
2022/05/30 01:17:29;;;;;;;4.35;0.65;;;8.20;99.90;;;;;;5087493;28;20391;-88
2022/05/30 01:20:00;;;;;;;4.15;0.93;;;8.10;99.90;;;;;;5051409;28;20054;-87
2022/05/30 01:22:51;;;;;;;5.85;0.82;;;8.10;99.90;;;;;;5085602;28;20044;-87
2022/05/30 01:25:41;;;;;;;6.88;0.70;;;8.10;99.90;;;;;;5068679;28;20367;-86
2022/05/30 01:28:22;;;;;;;3.70;0.82;;;8.00;99.90;;;;;;5068524;28;20047;-86
2022/05/30 01:30:49;;;;;;;3.05;0.70;;;7.90;99.90;;;;;;5069069;28;20040;-86
2022/05/30 01:33:16;;;;;;;4.25;0.98;;;8.70;99.90;;;;;;5051130;28;20123;-86
2022/05/30 01:35:42;;;;;;;3.42;0.95;;;7.80;99.90;;;;;;5068096;28;20473;-85
2022/05/30 01:38:08;;;;;;;2.13;0.90;;;7.80;99.90;;;;;;5084604;28;20121;-86
2022/05/30 01:40:34;;;;;;;4.25;0.90;;;7.70;99.90;;;;;;5055412;28;20047;-86
2022/05/30 01:42:59;;;;;;;3.08;0.95;;;8.80;99.90;;;;;;5084632;28;20047;-86
2022/05/30 01:45:27;;;;;;;2.67;0.85;;;7.90;99.90;;;;;;5080540;28;20471;-87
2022/05/30 01:47:52;;;;;;;4.07;1.23;;;7.60;99.90;;;;;;5086554;28;20044;-86
2022/05/30 01:50:19;;;;;;;2.20;0.70;;;7.50;99.90;;;;;;5084423;28;20036;-87
2022/05/30 01:52:45;;;;;;;10.98;0.73;;;8.70;99.90;;;;;;5051167;28;20052;-86
2022/05/30 01:55:11;;;;;;;2.35;0.90;;;7.40;99.90;;;;;;5050784;28;20129;-87
2022/05/30 01:57:40;;;;;;;3.15;1.25;;;8.50;99.90;;;;;;5051491;28;20564;-86
2022/05/30 02:00:10;;;;;;;2.25;1.10;;;8.40;99.90;;;;;;5067765;28;20040;-86
2022/05/30 02:02:36;;;;;;;2.95;0.80;;;7.30;99.90;;;;;;5050764;28;20044;-87
2022/05/30 02:05:03;;;;;;;1.98;0.88;;;8.40;99.90;;;;;;5067927;28;20040;-87
2022/05/30 02:07:29;;;;;;;1.27;0.60;;;7.20;99.90;;;;;;5050045;28;20060;-88
2022/05/30 02:09:54;;;;;;;6.35;0.77;;;7.20;99.90;;;;;;5067700;28;20050;-88
2022/05/30 02:12:20;;;;;;;3.08;0.90;;;7.20;99.90;;;;;;5067266;28;20079;-87
2022/05/30 02:14:46;;;;;;;2.03;0.60;;;7.20;99.90;;;;;;5086087;28;20599;-87
2022/05/30 02:17:12;;;;;;;2.65;1.00;;;7.20;99.90;;;;;;5067782;28;20032;-88
2022/05/30 02:19:44;;;;;;;2.00;0.55;;;7.10;99.90;;;;;;5084140;28;20508;-86
2022/05/30 02:22:13;;;;;;;2.63;1.05;;;7.10;99.90;;;;;;5085915;28;20059;-86
2022/05/30 02:24:39;;;;;;;2.70;1.05;;;7.60;99.90;;;;;;5066425;28;20078;-86
2022/05/30 02:27:06;;;;;;;3.35;1.13;;;7.90;99.90;;;;;;5084268;28;20059;-86
2022/05/30 02:29:32;;;;;;;3.38;0.93;;;7.10;99.90;;;;;;5067030;28;20047;-87
2022/05/30 02:31:58;;;;;;;6.30;0.90;;;8.60;99.90;;;;;;5050344;28;20587;-87
2022/05/30 02:37:08;;;;;;;1.38;0.90;;;7.10;99.90;;;;;;5069678;28;20091;-88
2022/05/30 02:39:34;;;;;;;1.63;0.88;;;7.10;99.90;;;;;;5075711;28;20039;-88
2022/05/30 02:42:00;;;;;;;2.67;0.70;;;8.10;99.90;;;;;;5058203;28;20044;-88
2022/05/30 02:44:26;;;;;;;3.17;0.52;;;8.00;99.90;;;;;;5110405;28;20029;-88
2022/05/30 02:46:57;;;;;;;3.92;0.75;;;7.10;99.90;;;;;;5087454;28;20044;-88
2022/05/30 02:49:24;;;;;;;1.98;0.80;;;7.10;99.90;;;;;;5068202;28;20112;-88
2022/05/30 02:51:50;;;;;;;6.93;0.90;;;8.40;99.90;;;;;;5067564;28;20101;-88
2022/05/30 02:54:17;;;;;;;10.77;1.00;;;8.50;99.90;;;;;;5049623;28;20048;-87
2022/05/30 02:56:56;;;;;;;3.15;0.70;;;7.90;99.90;;;;;;5067366;28;20047;-87
2022/05/30 02:59:22;;;;;;;2.88;0.63;;;7.20;99.90;;;;;;5083473;28;20069;-89
2022/05/30 03:01:48;;;;;;;1.63;0.50;;;7.30;99.90;;;;;;5068615;28;20140;-88
2022/05/30 03:04:15;;;;;;;3.13;0.70;;;8.20;99.90;;;;;;5071961;28;20046;-88
2022/05/30 03:06:41;;;;;;;2.45;0.75;;;8.40;99.90;;;;;;5071707;28;20057;-89
2022/05/30 03:09:07;;;;;;;4.85;0.93;;;7.40;99.90;;;;;;5074550;28;20190;-88
2022/05/30 03:11:33;;;;;;;3.17;1.17;;;7.80;99.90;;;;;;5090243;28;20024;-89
2022/05/30 03:13:59;;;;;;;2.97;0.82;;;7.50;99.90;;;;;;5074650;28;20148;-89
2022/05/30 03:16:28;;;;;;;5.43;1.17;;;7.00;99.90;;;;;;5056784;28;20051;-89
2022/05/30 03:18:54;;;;;;;5.93;0.90;;;8.90;99.90;;;;;;5089166;28;20032;-87
2022/05/30 03:21:20;;;;;;;4.15;0.88;;;7.70;99.90;;;;;;5070749;28;20036;-88
2022/05/30 03:23:46;;;;;;;2.45;0.90;;;7.70;99.90;;;;;;5037509;28;20040;-87
2022/05/30 03:26:12;;;;;;;6.07;1.10;;;8.70;99.90;;;;;;5071891;28;20040;-87
2022/05/30 03:28:38;;;;;;;4.53;1.17;;;7.80;99.90;;;;;;5083447;28;20032;-87
2022/05/30 03:31:07;;;;;;;6.20;0.90;;;7.80;99.90;;;;;;5094706;28;20048;-87
2022/05/30 03:33:34;;;;;;;3.58;0.93;;;8.70;99.90;;;;;;5086656;28;20047;-87
2022/05/30 03:35:59;;;;;;;3.50;0.70;;;7.90;99.90;;;;;;5072689;28;20046;-87
2022/05/30 03:38:25;;;;;;;2.38;0.80;;;7.80;99.90;;;;;;5088224;28;20499;-87
2022/05/30 03:40:51;;;;;;;3.45;1.15;;;7.90;99.90;;;;;;5087895;28;20504;-87
2022/05/30 03:43:16;;;;;;;2.28;0.82;;;7.90;99.90;;;;;;5088485;28;20387;-87
2022/05/30 03:45:44;;;;;;;4.47;1.00;;;8.90;99.90;;;;;;5087184;28;20055;-86
2022/05/30 03:48:12;;;;;;;3.92;1.10;;;8.00;99.90;;;;;;5070756;28;20100;-86
2022/05/30 03:50:42;;;;;;;2.53;1.15;;;7.30;99.90;;;;;;5088386;28;20074;-86
2022/05/30 03:53:08;;;;;;;2.85;1.15;;;9.20;99.90;;;;;;5087979;28;20047;-87
2022/05/30 03:55:42;;;;;;;8.65;1.00;;;8.00;99.90;;;;;;5070041;28;20512;-88
2022/05/30 03:58:09;;;;;;;2.65;1.00;;;8.50;99.90;;;;;;5086657;28;20055;-88
2022/05/30 04:00:36;;;;;;;6.68;0.70;;;8.10;99.90;;;;;;5088891;28;20127;-87
2022/05/30 04:03:03;;;;;;;3.03;1.08;;;9.20;99.90;;;;;;5086285;28;20058;-88
2022/05/30 04:05:29;;;;;;;2.67;1.00;;;8.10;99.90;;;;;;5089014;28;20044;-87
2022/05/30 04:07:55;;;;;;;4.63;1.35;;;8.10;99.90;;;;;;5071076;28;20047;-87
2022/05/30 04:10:22;;;;;;;4.55;1.02;;;8.10;99.90;;;;;;5057937;28;20059;-88
2022/05/30 04:12:48;;;;;;;5.40;1.23;;;9.40;99.90;;;;;;5099433;28;20040;-93
2022/05/30 04:15:20;;;;;;;3.85;1.00;;;8.20;99.90;;;;;;5045846;28;20093;-89
2022/05/30 04:17:46;;;;;;;4.82;1.20;;;9.10;99.90;;;;;;5087796;28;20054;-89
2022/05/30 04:20:12;;;;;;;7.72;1.25;;;8.90;99.90;;;;;;5069445;28;20039;-90
2022/05/30 04:22:37;;;;;;;2.10;1.05;;;7.30;99.90;;;;;;5070889;28;20515;-90
2022/05/30 04:25:04;;;;;;;4.70;1.40;;;8.40;99.90;;;;;;5071103;28;20047;-90
2022/05/30 04:27:29;;;;;;;1.85;1.00;;;8.30;99.90;;;;;;5070325;28;20044;-89
2022/05/30 04:29:55;;;;;;;6.07;1.23;;;8.40;99.90;;;;;;5070318;28;20044;-89
2022/05/30 04:32:22;;;;;;;4.97;1.23;;;9.80;99.90;;;;;;5069773;28;20102;-88
2022/05/30 04:34:48;;;;;;;5.10;1.55;;;8.40;99.90;;;;;;5054501;28;20044;-88
2022/05/30 04:37:14;;;;;;;3.03;0.93;;;9.70;99.90;;;;;;5086306;28;20098;-89
2022/05/30 04:39:40;;;;;;;6.13;1.00;;;9.90;99.90;;;;;;5062393;28;20043;-87
2022/05/30 04:42:07;;;;;;;4.53;0.95;;;8.50;99.90;;;;;;5066344;28;20878;-88
2022/05/30 04:44:35;;;;;;;3.75;1.10;;;8.50;99.90;;;;;;5072852;28;20072;-88
2022/05/30 04:47:00;;;;;;;3.97;1.00;;;8.50;99.90;;;;;;5071923;28;20039;-88
2022/05/30 04:49:27;;;;;;;4.72;0.80;;;8.60;99.90;;;;;;5086355;28;20162;-89
2022/05/30 04:51:53;;;;;;;2.70;0.95;;;8.60;99.90;;;;;;5088096;28;20491;-92
2022/05/30 04:54:20;;;;;;;4.45;0.88;;;8.70;99.90;;;;;;5085905;28;20134;-87
2022/05/30 04:56:46;;;;;;;3.47;0.80;;;8.70;99.90;;;;;;5053426;28;20085;-89
2022/05/30 04:59:12;;;;;;;1.58;0.70;;;8.70;99.90;;;;;;5069523;28;20039;-90
2022/05/30 05:01:39;;;;;;;5.18;1.08;;;8.80;99.90;;;;;;5036197;28;20044;-94
2022/05/30 05:04:06;;;;;;;2.58;0.82;;;9.80;99.90;;;;;;5069867;28;20127;-92
2022/05/30 05:06:32;;;;;;;4.18;0.85;;;9.70;99.90;;;;;;5070148;28;20115;-92
2022/05/30 05:09:05;;;;;;;2.85;1.20;;;9.60;99.90;;;;;;5070631;28;20109;-89
2022/05/30 05:11:36;;;;;;;4.55;0.70;;;9.10;99.90;;;;;;5084958;28;20500;-87
2022/05/30 05:14:02;;;;;;;2.17;1.10;;;9.10;99.90;;;;;;5086615;28;20047;-92
2022/05/30 05:16:30;;;;;;;5.47;1.17;;;9.20;99.90;;;;;;5036104;28;20036;-87
2022/05/30 05:18:56;;;;;;;1.38;0.70;;;9.40;99.90;;;;;;5069234;28;20099;-87
2022/05/30 05:21:28;;;;;;;1.55;0.85;;;9.20;99.90;;;;;;5085790;28;20043;-88
2022/05/30 05:23:54;;;;;;;3.45;1.08;;;9.30;99.90;;;;;;5084814;28;20044;-87
2022/05/30 05:26:21;;;;;;;4.20;1.00;;;9.30;99.90;;;;;;5069870;28;20044;-86
2022/05/30 05:28:47;;;;;;;3.45;0.85;;;9.30;99.90;;;;;;5085305;28;20047;-88
2022/05/30 05:31:27;;;;;;;6.22;0.77;;;9.60;99.90;;;;;;5086382;28;20051;-88
2022/05/30 05:33:55;;;;;;;3.92;1.15;;;9.30;99.90;;;;;;5068794;28;20051;-90
2022/05/30 05:36:27;;;;;;;3.05;0.80;;;9.90;99.90;;;;;;5069047;28;20044;-89
2022/05/30 05:38:53;;;;;;;3.00;0.53;;;10.30;99.90;;;;;;5071770;28;20032;-88
2022/05/30 05:41:19;;;;;;;5.13;0.95;;;9.30;99.90;;;;;;5075707;28;20044;-94
2022/05/30 05:43:44;;;;;;;2.33;0.90;;;10.10;99.90;;;;;;5093542;28;20047;-95
2022/05/30 05:46:19;;;;;;;4.22;1.08;;;9.70;99.90;;;;;;5054819;28;20040;-91
2022/05/30 05:48:45;;;;;;;3.28;0.85;;;9.50;99.90;;;;;;5071493;28;20495;-91
2022/05/30 05:51:13;;;;;;;0.73;0.55;;;9.60;99.90;;;;;;5069632;28;20040;-88
2022/05/30 05:53:40;;;;;;;1.20;0.80;;;10.80;99.90;;;;;;5053433;28;20046;-88
2022/05/30 05:56:18;;;;;;;3.13;1.13;;;10.50;99.90;;;;;;5082693;28;20043;-91
2022/05/30 05:58:44;;;;;;;3.42;0.98;;;9.90;99.90;;;;;;5105417;28;20569;-94
2022/05/30 06:01:18;;;;;;;3.42;0.70;;;10.10;99.90;;;;;;5061595;28;20043;-91
2022/05/30 06:03:44;;;;;;;2.47;0.93;;;11.20;99.90;;;;;;5088811;28;20519;-95
2022/05/30 06:06:10;;;;;;;1.52;0.80;;;11.70;99.90;;;;;;5053270;28;20040;-92
2022/05/30 06:08:36;;;;;;;2.17;0.80;;;10.60;99.90;;;;;;5071936;28;20056;-91
2022/05/30 06:11:05;;;;;;;4.20;0.70;;;10.80;99.90;;;;;;5075191;28;20058;-92
2022/05/30 06:13:40;;;;;;;2.92;0.60;;;12.30;99.90;;;;;;5078896;28;20048;-92
2022/05/30 06:16:07;;;;;;;4.35;0.77;;;11.20;99.90;;;;;;5070191;28;20044;-90
2022/05/30 06:18:33;;;;;;;3.08;0.47;;;11.30;99.90;;;;;;5069819;28;20075;-91
2022/05/30 06:21:00;;;;;;;1.90;0.25;;;11.30;99.90;;;;;;5068921;28;20044;-91
2022/05/30 06:23:26;;;;;;;1.85;0.52;;;11.30;99.90;;;;;;5068982;28;20059;-91
2022/05/30 06:25:52;;;;;;;0.40;0.25;;;12.50;99.90;;;;;;5052255;28;20042;-91
2022/05/30 06:28:18;;;;;;;1.00;0.32;;;11.30;99.90;;;;;;5067912;28;20044;-92
2022/05/30 06:30:44;;;;;;;2.47;0.32;;;11.30;99.90;;;;;;5068546;28;20074;-90
2022/05/30 06:33:10;;;;;;;6.53;1.30;;;11.90;99.90;;;;;;5067362;28;20047;-90
2022/05/30 06:35:40;;;;;;;2.97;0.43;;;11.30;99.90;;;;;;5067581;28;20040;-92
2022/05/30 06:38:09;;;;;;;11.32;1.35;;;11.30;99.90;;;;;;5068182;28;20036;-93
2022/05/30 06:40:35;;;;;;;0.45;0.20;;;11.30;99.90;;;;;;5069406;28;20588;-92
2022/05/30 06:43:01;;;;;;;4.03;0.43;;;11.30;99.90;;;;;;5052719;28;20040;-92
2022/05/30 06:45:27;;;;;;;1.00;0.32;;;11.30;99.90;;;;;;5067405;28;20473;-92
2022/05/30 06:47:52;;;;;;;0.70;0.25;;;12.40;99.90;;;;;;5052093;28;20051;-92
2022/05/30 06:50:18;;;;;;;2.47;0.55;;;11.90;99.90;;;;;;5034175;28;20138;-92
2022/05/30 06:52:44;;;;;;;1.55;0.40;;;12.50;99.90;;;;;;5068307;28;20510;-93
2022/05/30 06:55:10;;;;;;;1.98;0.30;;;11.20;99.90;;;;;;5068152;28;20122;-92
2022/05/30 07:00:20;;;;;;;2.90;0.30;;;11.30;99.90;;;;;;5085772;28;20105;-93
2022/05/30 07:02:46;;;;;;;1.30;0.38;;;11.40;99.90;;;;;;5051326;28;20127;-93
2022/05/30 07:05:13;;;;;;;2.38;0.47;;;12.30;99.90;;;;;;5052821;28;20085;-94
2022/05/30 07:07:41;;;;;;;2.80;0.30;;;11.50;99.90;;;;;;5067713;28;20070;-93
2022/05/30 07:10:10;;;;;;;2.42;0.63;;;11.40;99.90;;;;;;5036425;28;20493;-93
2022/05/30 07:12:35;;;;;;;1.88;0.82;;;11.50;99.90;;;;;;5087749;28;20074;-94
2022/05/30 07:15:01;;;;;;;2.00;0.28;;;12.30;99.90;;;;;;5089824;28;20028;-93
2022/05/30 07:17:27;;;;;;;0.90;0.28;;;11.60;99.90;;;;;;5059901;28;20084;-94
2022/05/30 07:19:52;;;;;;;17.10;1.48;;;11.60;99.90;;;;;;5048177;28;20090;-93
2022/05/30 07:22:18;;;;;;;2.08;0.40;;;11.70;99.90;;;;;;5036254;28;20037;-93
2022/05/30 07:24:44;;;;;;;2.60;0.30;;;11.80;99.90;;;;;;5034500;28;20554;-94
2022/05/30 07:27:10;;;;;;;1.50;0.40;;;11.80;99.90;;;;;;5068210;28;20048;-93
2022/05/30 07:29:36;;;;;;;0.60;0.20;;;12.80;99.90;;;;;;5067560;28;20036;-93
2022/05/30 07:32:03;;;;;;;3.17;0.40;;;11.80;99.90;;;;;;5051712;28;20540;-93
2022/05/30 07:34:30;;;;;;;4.00;0.47;;;11.90;99.90;;;;;;5068600;28;20048;-91
2022/05/30 07:36:58;;;;;;;4.43;0.20;;;11.80;99.90;;;;;;5053792;28;20043;-91
2022/05/30 07:39:24;;;;;;;0.60;0.30;;;11.70;99.90;;;;;;5083118;28;20051;-91
2022/05/30 07:41:50;;;;;;;2.75;0.40;;;12.20;99.90;;;;;;5090471;28;20070;-91
2022/05/30 07:44:16;;;;;;;5.07;0.55;;;11.80;99.90;;;;;;5045304;28;20044;-92
2022/05/30 07:46:45;;;;;;;0.50;0.30;;;11.80;99.90;;;;;;5035020;28;20405;-93
2022/05/30 07:49:12;;;;;;;1.80;0.52;;;11.90;99.90;;;;;;5056722;28;20040;-93
2022/05/30 07:51:38;;;;;;;0.70;0.20;;;12.00;99.90;;;;;;5039206;28;20044;-93
2022/05/30 07:54:04;;;;;;;2.00;0.25;;;12.70;99.90;;;;;;5089714;28;20069;-92
2022/05/30 07:56:30;;;;;;;0.75;0.10;;;12.10;99.90;;;;;;5084993;28;20104;-91
2022/05/30 07:58:56;;;;;;;3.50;0.30;;;12.30;99.90;;;;;;5042817;28;20144;-91
2022/05/30 08:01:22;;;;;;;2.90;0.40;;;12.60;99.90;;;;;;5054614;28;20067;-93
2022/05/30 08:03:52;;;;;;;0.88;0.20;;;12.80;99.90;;;;;;5053463;28;20032;-92
2022/05/30 08:06:24;;;;;;;1.40;0.70;;;13.10;99.90;;;;;;5071113;28;20040;-91
2022/05/30 08:08:51;;;;;;;1.07;0.30;;;13.50;99.90;;;;;;5069955;28;20048;-91
2022/05/30 08:11:17;;;;;;;0.35;0.20;;;13.80;99.90;;;;;;5036349;28;20505;-91
2022/05/30 08:13:45;;;;;;;1.10;0.20;;;14.20;99.90;;;;;;5052915;28;20064;-92
2022/05/30 08:16:12;;;;;;;3.88;0.55;;;14.30;99.90;;;;;;5053345;28;20464;-92
2022/05/30 08:18:38;;;;;;;2.63;0.50;;;15.00;99.90;;;;;;5069555;28;20040;-91
2022/05/30 08:21:04;;;;;;;4.05;0.22;;;14.10;99.90;;;;;;5076298;28;20043;-91
2022/05/30 08:23:31;;;;;;;1.95;0.30;;;13.80;99.90;;;;;;5094889;28;20028;-91
2022/05/30 08:25:57;;;;;;;2.38;0.40;;;13.60;99.90;;;;;;5094827;28;20027;-91
2022/05/30 08:28:23;;;;;;;1.23;0.45;;;13.40;99.90;;;;;;5041589;28;20048;-93
2022/05/30 08:30:50;;;;;;;3.45;0.60;;;13.40;99.90;;;;;;5053750;28;20076;-94
2022/05/30 08:33:18;;;;;;;1.08;0.30;;;13.70;99.90;;;;;;5068798;28;20047;-94
2022/05/30 08:35:45;;;;;;;0.38;0.17;;;14.10;99.90;;;;;;5069297;28;20044;-94
2022/05/30 08:38:12;;;;;;;2.38;0.20;;;15.40;99.90;;;;;;5052556;28;20048;-94
2022/05/30 08:43:37;;;;;;;2.88;0.30;;;14.90;99.90;;;;;;5086869;28;20055;-95
2022/05/30 08:46:09;;;;;;;1.45;0.25;;;14.40;99.90;;;;;;5092007;28;20032;-93
2022/05/30 08:48:41;;;;;;;1.88;0.35;;;14.20;99.90;;;;;;5086429;28;20048;-94
2022/05/30 08:51:15;;;;;;;3.63;0.10;;;14.00;99.90;;;;;;5075642;28;20048;-95
2022/05/30 08:53:47;;;;;;;1.40;0.40;;;14.30;99.90;;;;;;5069957;28;20044;-94
2022/05/30 08:56:18;;;;;;;0.52;0.20;;;13.80;99.90;;;;;;5069793;28;20105;-92
2022/05/30 08:59:02;;;;;;;1.55;0.28;;;13.70;99.90;;;;;;5067839;28;20058;-90
2022/05/30 09:01:42;;;;;;;3.13;0.30;;;13.60;99.90;;;;;;5068015;28;20040;-91
2022/05/30 09:04:43;;;;;;;1.08;0.30;;;13.60;99.90;;;;;;5067977;28;20043;-92
2022/05/30 09:07:19;;;;;;;0.63;0.20;;;13.70;99.90;;;;;;5067532;28;20137;-91
2022/05/30 09:09:44;;;;;;;8.77;0.70;;;13.80;99.90;;;;;;5068762;28;20131;-91
2022/05/30 09:12:29;;;;;;;3.75;0.30;;;13.80;99.90;;;;;;5084821;28;20040;-91
2022/05/30 09:15:14;;;;;;;1.73;0.38;;;13.80;99.90;;;;;;5085835;28;20048;-92
2022/05/30 09:17:52;;;;;;;1.10;0.15;;;13.70;99.90;;;;;;5082153;28;20648;-92
2022/05/30 09:20:21;;;;;;;0.35;0.13;;;13.50;99.90;;;;;;5069532;28;20062;-93
2022/05/30 09:22:47;;;;;;;0.32;0.20;;;13.30;99.90;;;;;;5069195;28;20096;-92
2022/05/30 09:28:07;;;;;;;3.60;0.30;;;13.30;99.90;;;;;;5085776;28;20476;-92
2022/05/30 09:30:54;;;;;;;1.40;0.30;;;13.20;99.90;;;;;;5069035;28;20079;-92
2022/05/30 09:33:23;;;;;;;12.05;1.60;;;13.20;99.90;;;;;;5084438;28;20499;-92
2022/05/30 09:35:49;;;;;;;4.30;0.50;;;13.30;99.90;;;;;;5069789;28;20605;-92
2022/05/30 09:38:20;;;;;;;0.95;0.22;;;13.50;99.90;;;;;;5036608;28;20036;-92
2022/05/30 09:40:55;;;;;;;0.93;0.20;;;14.10;99.90;;;;;;5077457;28;20040;-93
2022/05/30 09:43:27;;;;;;;0.20;0.17;;;13.90;99.90;;;;;;5079616;28;20048;-93
2022/05/30 09:45:54;;;;;;;0.88;0.10;;;14.00;99.90;;;;;;5073219;28;20040;-92
2022/05/30 09:48:21;;;;;;;0.00;0.00;;;14.00;99.90;;;;;;5067868;28;20055;-91
2022/05/30 09:50:53;;;;;;;1.20;0.20;;;14.00;99.90;;;;;;5051447;28;20080;-92
2022/05/30 09:53:50;;;;;;;6.55;0.30;;;14.00;99.90;;;;;;5084482;28;20097;-93
2022/05/30 09:56:18;;;;;;;0.85;0.13;;;13.90;99.90;;;;;;5052441;28;20379;-93
2022/05/30 09:58:58;;;;;;;3.63;0.30;;;13.90;99.90;;;;;;5066941;28;20036;-92
2022/05/30 10:01:26;;;;;;;1.13;0.20;;;14.00;99.90;;;;;;5067072;28;20048;-92
2022/05/30 10:03:56;;;;;;;0.32;0.10;;;14.20;99.90;;;;;;5066698;28;20129;-92
2022/05/30 10:06:27;;;;;;;7.88;1.10;;;14.90;99.90;;;;;;5066700;28;20128;-92
2022/05/30 10:09:13;;;;;;;0.22;0.10;;;14.50;99.90;;;;;;5067462;28;20047;-90
2022/05/30 10:11:40;;;;;;;1.20;0.10;;;14.60;99.90;;;;;;5065257;28;20060;-89
2022/05/30 10:14:21;;;;;;;1.23;0.10;;;14.80;99.90;;;;;;5065704;28;20098;-89
2022/05/30 10:16:48;;;;;;;0.63;0.17;;;15.00;99.90;;;;;;5082409;28;20134;-89
2022/05/30 10:19:23;;;;;;;0.55;0.10;;;16.00;99.90;;;;;;5083212;28;20111;-90
2022/05/30 10:28:16;;;;;;;7.28;0.98;;;15.60;99.90;;;;;;5091645;28;20076;-95
2022/05/30 10:30:54;;;;;;;4.22;0.40;;;15.60;99.90;;;;;;5069688;28;20047;-93
2022/05/30 10:33:33;;;;;;;7.25;0.35;;;15.50;99.90;;;;;;5067699;28;20044;-94
2022/05/30 10:36:21;;;;;;;1.58;0.40;;;15.40;99.90;;;;;;5067833;28;20036;-95
2022/05/30 10:39:23;;;;;;;1.27;0.15;;;15.40;99.90;;;;;;5069142;28;20091;-95
2022/05/30 10:41:58;;;;;;;0.10;0.10;;;15.30;99.90;;;;;;5069373;28;20044;-92
2022/05/30 10:44:29;;;;;;;0.70;0.10;;;15.20;99.90;;;;;;5089351;28;20044;-93
2022/05/30 10:47:33;;;;;;;1.08;0.10;;;15.00;99.90;;;;;;5083050;28;20036;-94
2022/05/30 10:50:22;;;;;;;0.95;0.20;;;14.90;99.90;;;;;;5043561;28;20052;-94
2022/05/30 10:53:02;;;;;;;0.30;0.10;;;14.80;99.90;;;;;;5081899;28;20076;-91
2022/05/30 10:55:36;;;;;;;1.08;0.32;;;14.60;99.90;;;;;;5085061;28;20079;-93
2022/05/30 10:58:23;;;;;;;2.50;0.20;;;14.60;99.90;;;;;;5053188;28;20051;-95
2022/05/30 11:00:55;;;;;;;0.93;0.20;;;14.50;99.90;;;;;;5068870;28;20099;-95
2022/05/30 11:03:40;;;;;;;3.78;0.28;;;14.90;99.90;;;;;;5067517;28;20036;-94
2022/05/30 11:06:23;;;;;;;3.83;0.17;;;14.50;99.90;;;;;;5067624;28;20134;-93
2022/05/30 11:09:07;;;;;;;2.03;0.28;;;14.50;99.90;;;;;;5067784;28;20328;-94
2022/05/30 11:11:43;;;;;;;1.38;0.20;;;14.50;99.90;;;;;;5067226;28;20051;-94
2022/05/30 11:14:45;;;;;;;0.68;0.20;;;14.50;99.90;;;;;;5067107;28;20473;-92
2022/05/30 11:17:29;;;;;;;4.45;0.20;;;14.60;99.90;;;;;;5067035;28;20058;-91
2022/05/30 11:20:04;;;;;;;0.75;0.10;;;14.70;99.90;;;;;;5066965;28;20040;-92
2022/05/30 11:22:49;;;;;;;0.80;0.30;;;14.90;99.90;;;;;;5068400;28;20036;-92
2022/05/30 11:25:30;;;;;;;0.55;0.30;;;15.10;99.90;;;;;;5070972;28;20051;-92
2022/05/30 11:28:20;;;;;;;8.07;0.85;;;15.30;99.90;;;;;;5075226;28;20044;-91
2022/05/30 11:31:09;;;;;;;1.10;0.30;;;15.40;99.90;;;;;;5077926;28;20039;-84
2022/05/30 11:33:52;;;;;;;2.75;0.20;;;15.50;99.90;;;;;;5085074;28;20044;-85
2022/05/30 11:36:24;;;;;;;;;;;15.50;99.90;;;;;;5089489;28;20048;-92
2022/05/30 11:39:01;;;;;;;0.60;0.10;;;15.50;99.90;;;;;;5071109;28;19973;-90
2022/05/30 11:41:46;;;;;;;1.30;0.20;;;15.50;99.90;;;;;;5068435;28;20337;-89
2022/05/30 11:44:35;;;;;;;0.22;0.20;;;15.50;99.90;;;;;;5087051;28;20484;-90
2022/05/30 11:47:24;;;;;;;1.25;0.20;;;15.50;99.90;;;;;;5069570;28;20059;-91
2022/05/30 11:50:28;;;;;;;2.45;0.17;;;15.30;99.90;;;;;;5068914;28;20059;-92
2022/05/30 11:53:01;;;;;;;;;;;15.30;99.90;;;;;;5069633;28;20047;-90
2022/05/30 11:55:41;;;;;;;2.05;0.40;;;15.20;99.90;;;;;;5067892;28;19928;-89
2022/05/30 11:58:32;;;;;;;2.47;0.30;;;15.10;99.90;;;;;;5088199;28;20044;-90
2022/05/30 12:00:59;;;;;;;0.45;0.20;;;15.00;99.90;;;;;;5074187;28;20040;-90
2022/05/30 12:04:08;;;;;;;2.70;0.32;;;14.90;99.90;;;;;;5057950;28;20543;-89
2022/05/30 12:07:11;;;;;;;2.10;0.20;;;14.90;99.90;;;;;;5087462;28;20040;-89
2022/05/30 12:09:59;;;;;;;2.67;0.38;;;15.00;99.90;;;;;;5069017;28;20201;-90
2022/05/30 12:12:34;;;;;;;1.00;0.30;;;15.00;99.90;;;;;;5069150;28;20385;-89
2022/05/30 12:15:15;;;;;;;0.85;0.20;;;14.50;99.90;;;;;;5068781;28;20517;-89
2022/05/30 12:24:22;;;;;;;0.30;0.30;;;14.20;99.90;;;;;;5086001;28;20082;-89
2022/05/30 12:26:54;;;;;;;2.03;1.00;;;13.80;99.90;;;;;;5068246;28;20055;-89
2022/05/30 12:29:38;;;;;;;3.65;0.50;;;13.60;99.90;;;;;;5068149;28;20047;-89
2022/05/30 12:32:23;;;;;;;1.92;0.85;;;13.40;99.90;;;;;;5084906;28;20040;-90
2022/05/30 12:35:00;;;;;;;2.20;0.20;;;13.20;99.90;;;;;;5085247;28;20048;-89
2022/05/30 12:37:44;;;;;;;5.43;0.60;;;13.90;99.90;;;;;;5084201;28;20051;-90
2022/05/30 12:40:43;;;;;;;1.92;0.17;;;13.20;99.90;;;;;;5067938;28;20128;-90
2022/05/30 12:43:25;;;;;;;1.52;0.40;;;13.20;99.90;;;;;;5068159;28;20040;-90
2022/05/30 12:45:56;;;;;;;1.55;0.20;;;13.30;99.90;;;;;;5068564;28;20149;-89
2022/05/30 12:48:31;;;;;;;2.75;0.22;;;13.30;99.90;;;;;;5068449;28;20040;-89
2022/05/30 12:51:10;;;;;;;0.47;0.20;;;13.30;99.90;;;;;;5084644;28;20450;-89
2022/05/30 12:53:54;;;;;;;1.45;0.32;;;13.30;99.90;;;;;;5085121;28;20039;-89
2022/05/30 12:56:38;;;;;;;10.40;1.00;;;13.30;99.90;;;;;;5068110;28;20519;-89
2022/05/30 12:59:04;;;;;;;1.38;0.28;;;13.30;99.90;;;;;;5067719;28;20105;-89
2022/05/30 13:01:51;;;;;;;1.33;0.30;;;13.20;99.90;;;;;;5084776;28;20504;-89
2022/05/30 13:04:22;;;;;;;9.38;0.50;;;14.20;99.90;;;;;;5067883;28;20084;-89
2022/05/30 13:06:57;;;;;;;1.92;0.43;;;13.10;99.90;;;;;;5067270;28;20054;-88
2022/05/30 13:09:33;;;;;;;2.75;0.40;;;13.10;99.90;;;;;;5068513;28;20055;-88
2022/05/30 13:12:10;;;;;;;1.73;0.30;;;13.00;99.90;;;;;;5083338;28;20048;-88
2022/05/30 13:15:00;;;;;;;1.98;0.35;;;12.90;99.90;;;;;;5084267;28;20135;-88
2022/05/30 13:18:01;;;;;;;2.83;0.40;;;12.90;99.90;;;;;;5085687;28;20044;-88
2022/05/30 13:20:43;;;;;;;2.70;0.47;;;12.80;99.90;;;;;;5087379;28;20048;-89
2022/05/30 13:23:09;;;;;;;0.52;0.20;;;12.80;99.90;;;;;;5083306;28;20054;-87
2022/05/30 13:25:40;;;;;;;1.83;0.20;;;12.80;99.90;;;;;;5110241;28;20091;-92
2022/05/30 13:28:11;;;;;;;2.17;0.30;;;12.90;99.90;;;;;;5099479;28;20466;-89
2022/05/30 13:30:38;;;;;;;2.15;0.30;;;13.00;99.90;;;;;;5086238;28;20390;-87
2022/05/30 13:33:13;;;;;;;1.38;0.40;;;13.00;99.90;;;;;;5067440;28;20036;-88
2022/05/30 13:35:39;;;;;;;0.70;0.30;;;13.10;99.90;;;;;;5084484;28;20040;-88
2022/05/30 13:38:08;;;;;;;0.98;0.30;;;13.10;99.90;;;;;;5070332;28;20076;-84